createdAt,value
2023-04-11T00:02:12.659Z,10.8
2023-04-11T00:08:02.886Z,10.5
2023-04-11T00:13:55.176Z,10.8
2023-04-11T00:19:49.856Z,11.1
2023-04-11T00:25:40.425Z,10.9
2023-04-11T00:31:32.114Z,10.6
2023-04-11T00:37:25.667Z,10.6
2023-04-11T00:43:17.834Z,10.8
2023-04-11T00:49:09.945Z,11
2023-04-11T00:55:01.369Z,11
2023-04-11T01:00:52.902Z,10.9
2023-04-11T01:06:44.739Z,10.9
2023-04-11T01:12:36.492Z,10.8
2023-04-11T01:18:29.052Z,10.7
2023-04-11T01:24:21.457Z,10.9
2023-04-11T01:30:12.971Z,11
2023-04-11T01:36:06.163Z,10.9
2023-04-11T01:41:58.678Z,10.9
2023-04-11T01:47:51.019Z,10.6
2023-04-11T01:53:43.796Z,10.8
2023-04-11T01:59:35.079Z,10.6
2023-04-11T02:05:26.770Z,10.5
2023-04-11T02:11:18.483Z,10.6
2023-04-11T02:17:11.205Z,10.6
2023-04-11T02:23:03.825Z,10.6
2023-04-11T02:28:56.833Z,10.5
2023-04-11T02:34:50.985Z,10.3
2023-04-11T02:40:40.584Z,10.4
2023-04-11T02:46:31.745Z,10.4
2023-04-11T02:52:23.878Z,10.2
2023-04-11T02:58:18.640Z,10.4
2023-04-11T03:04:10.561Z,10.3
2023-04-11T03:10:03.229Z,10.4
2023-04-11T03:15:55.000Z,10.3
2023-04-11T03:21:47.371Z,10.3
2023-04-11T03:27:39.271Z,10
2023-04-11T03:33:31.481Z,9.7
2023-04-11T03:39:22.091Z,10
2023-04-11T03:45:14.302Z,9.9
2023-04-11T03:51:06.830Z,9.8
2023-04-11T03:56:58.743Z,9.8
2023-04-11T04:02:52.315Z,9.8
2023-04-11T04:08:45.567Z,9.9
2023-04-11T04:14:37.564Z,9.7
2023-04-11T04:20:31.028Z,9.8
2023-04-11T04:26:24.325Z,9.8
2023-04-11T07:46:48.257Z,10.6
2023-04-11T16:05:28.506Z,14.7
2023-04-11T16:41:42.498Z,14.4
2023-04-11T18:28:15.734Z,13
2023-04-11T18:34:10.348Z,13
2023-04-11T18:40:11.122Z,12.9
2023-04-11T18:46:04.435Z,12.9
2023-04-11T18:52:00.743Z,12.9
2023-04-11T18:58:09.693Z,12.9
2023-04-11T19:04:15.502Z,12.6
2023-04-11T19:10:09.683Z,12.5
2023-04-11T19:21:58.373Z,12.4
2023-04-11T19:33:55.861Z,12.3
2023-04-11T19:40:17.958Z,12
2023-04-11T20:10:27.378Z,11.8
2023-04-11T20:45:57.273Z,11.4
2023-04-11T21:33:33.366Z,11.2
2023-04-11T21:39:26.436Z,11.2
2023-04-11T21:45:21.051Z,11.3
2023-04-11T21:51:18.478Z,11.2
2023-04-11T21:57:16.278Z,11.1
2023-04-11T22:03:12.005Z,10.8
2023-04-11T22:09:14.002Z,11
2023-04-11T22:27:13.464Z,11.1
2023-04-11T22:33:07.320Z,11.2
2023-04-11T22:38:59.165Z,11
2023-04-11T22:44:52.046Z,11
2023-04-11T22:50:45.846Z,11.1
2023-04-11T22:56:38.091Z,11.1
2023-04-11T23:02:30.332Z,11.1
2023-04-11T23:08:23.589Z,11.3
2023-04-11T23:14:16.303Z,11
2023-04-11T23:20:08.216Z,11
2023-04-11T23:26:02.154Z,11
2023-04-11T23:31:53.070Z,11.2
2023-04-11T23:37:46.382Z,11
2023-04-11T23:43:37.380Z,10.9
2023-04-11T23:49:32.187Z,11
2023-04-11T23:55:23.238Z,11.1
